createdAt,value
2022-08-30T00:01:05.175Z,18.57
2022-08-30T00:03:46.581Z,18.51
2022-08-30T00:06:15.950Z,18.49
2022-08-30T00:08:44.104Z,18.44
2022-08-30T00:11:13.884Z,18.40
2022-08-30T00:13:43.228Z,18.37
2022-08-30T00:16:10.511Z,18.37
2022-08-30T00:18:37.109Z,18.37
2022-08-30T00:21:04.634Z,18.36
2022-08-30T00:23:31.239Z,18.34
2022-08-30T00:25:58.464Z,18.31
2022-08-30T00:28:25.074Z,18.29
2022-08-30T00:30:51.670Z,18.25
2022-08-30T00:33:18.476Z,18.22
2022-08-30T00:35:45.244Z,18.23
2022-08-30T00:38:17.819Z,18.14
2022-08-30T00:40:45.919Z,18.20
2022-08-30T00:43:19.570Z,18.19
2022-08-30T00:45:46.735Z,18.15
2022-08-30T00:48:13.286Z,18.13
2022-08-30T00:50:44.229Z,18.13
2022-08-30T00:53:15.183Z,18.12
2022-08-30T00:55:44.289Z,18.10
2022-08-30T00:58:21.314Z,18.09
2022-08-30T01:00:51.878Z,18.10
2022-08-30T01:03:18.489Z,18.04
2022-08-30T01:05:46.097Z,18.03
2022-08-30T01:08:12.622Z,18.02
2022-08-30T01:10:39.238Z,17.99
2022-08-30T01:13:06.143Z,17.97
2022-08-30T01:15:34.382Z,17.93
2022-08-30T01:18:02.121Z,17.90
2022-08-30T01:20:49.828Z,17.85
2022-08-30T01:23:19.873Z,17.91
2022-08-30T01:25:49.902Z,17.95
2022-08-30T01:28:21.601Z,17.97
2022-08-30T01:30:48.587Z,17.96
2022-08-30T01:33:15.575Z,17.95
2022-08-30T01:35:59.174Z,17.91
2022-08-30T01:38:32.390Z,17.88
2022-08-30T01:41:01.400Z,17.85
2022-08-30T01:43:29.009Z,17.79
2022-08-30T01:45:55.657Z,17.78
2022-08-30T01:48:22.193Z,17.74
2022-08-30T01:50:56.732Z,17.69
2022-08-30T01:53:23.364Z,17.69
2022-08-30T01:55:49.937Z,17.69
2022-08-30T01:58:16.464Z,17.68
2022-08-30T02:00:42.973Z,17.69
2022-08-30T02:03:09.478Z,17.68
2022-08-30T02:05:36.208Z,17.69
2022-08-30T02:08:03.532Z,17.64
2022-08-30T02:10:30.632Z,17.64
2022-08-30T02:12:59.540Z,17.62
2022-08-30T02:15:26.021Z,17.61
2022-08-30T02:17:52.621Z,17.62
2022-08-30T02:20:19.840Z,17.64
2022-08-30T02:22:49.434Z,17.63
2022-08-30T02:25:21.098Z,17.62
2022-08-30T02:27:48.357Z,17.62
2022-08-30T02:30:14.873Z,17.63
2022-08-30T02:32:41.550Z,17.59
2022-08-30T02:35:08.645Z,17.57
2022-08-30T02:37:35.365Z,17.56
2022-08-30T02:40:02.073Z,17.55
2022-08-30T02:42:28.826Z,17.50
2022-08-30T02:44:55.360Z,17.47
2022-08-30T02:47:21.861Z,17.46
2022-08-30T02:49:48.469Z,17.45
2022-08-30T02:52:15.022Z,17.42
2022-08-30T02:54:41.513Z,17.38
2022-08-30T02:57:08.808Z,17.35
2022-08-30T02:59:47.851Z,17.34
2022-08-30T03:02:14.807Z,17.33
2022-08-30T03:04:43.532Z,17.31
2022-08-30T03:07:12.457Z,17.30
2022-08-30T03:09:39.667Z,17.29
2022-08-30T03:12:07.769Z,17.27
2022-08-30T03:14:36.377Z,17.24
2022-08-30T03:17:05.285Z,17.25
2022-08-30T03:19:31.839Z,17.22
2022-08-30T03:21:58.469Z,17.21
2022-08-30T03:24:25.920Z,17.25
2022-08-30T03:26:53.559Z,17.22
2022-08-30T03:29:20.118Z,17.19
2022-08-30T03:31:53.077Z,17.18
2022-08-30T03:34:21.885Z,17.18
2022-08-30T03:36:49.519Z,17.16
2022-08-30T03:39:16.117Z,17.15
2022-08-30T03:41:42.644Z,17.13
2022-08-30T03:44:09.189Z,17.09
2022-08-30T03:46:37.497Z,17.03
2022-08-30T03:49:05.398Z,16.97
2022-08-30T03:51:33.077Z,16.94
2022-08-30T03:54:00.465Z,16.90
2022-08-30T03:56:27.195Z,16.87
2022-08-30T03:58:53.679Z,16.81
2022-08-30T04:01:20.261Z,16.81
2022-08-30T04:03:46.882Z,16.84
2022-08-30T04:06:13.478Z,16.83
2022-08-30T04:08:40.244Z,16.82
2022-08-30T04:11:07.236Z,16.77
2022-08-30T04:13:34.350Z,16.73
2022-08-30T04:16:00.919Z,16.72
2022-08-30T04:18:27.454Z,16.72
2022-08-30T04:20:54.049Z,16.70
2022-08-30T04:23:20.569Z,16.67
2022-08-30T04:25:47.407Z,16.65
2022-08-30T04:28:14.557Z,16.54
2022-08-30T04:30:43.556Z,16.60
2022-08-30T04:33:11.368Z,16.62
2022-08-30T04:35:42.241Z,16.51
2022-08-30T04:38:09.165Z,16.61
2022-08-30T04:40:36.064Z,16.68
2022-08-30T04:43:03.868Z,16.70
2022-08-30T04:45:30.490Z,16.69
2022-08-30T04:47:57.296Z,16.69
2022-08-30T04:50:24.071Z,16.75
2022-08-30T04:52:50.617Z,16.79
2022-08-30T04:55:20.211Z,16.83
2022-08-30T04:57:47.505Z,16.86
2022-08-30T05:00:14.492Z,16.90
2022-08-30T05:02:41.830Z,16.93
2022-08-30T05:05:28.483Z,16.96
2022-08-30T05:07:55.350Z,17.01
2022-08-30T05:10:22.578Z,17.08
2022-08-30T05:12:49.163Z,17.15
2022-08-30T05:15:16.125Z,17.18
2022-08-30T05:17:42.672Z,17.21
2022-08-30T05:20:11.537Z,17.22
2022-08-30T05:22:40.511Z,17.25
2022-08-30T05:25:08.178Z,17.26
2022-08-30T05:27:37.183Z,17.34
2022-08-30T05:30:06.192Z,17.55
2022-08-30T05:32:32.798Z,17.86
2022-08-30T05:34:59.325Z,18.12
2022-08-30T05:37:25.834Z,18.47
2022-08-30T05:39:52.474Z,18.82
2022-08-30T05:42:19.890Z,19.29
2022-08-30T05:44:47.747Z,19.86
2022-08-30T05:47:14.333Z,20.42
2022-08-30T05:49:40.845Z,20.86
2022-08-30T05:52:07.379Z,21.45
2022-08-30T05:54:33.928Z,22.01
2022-08-30T05:57:00.417Z,22.53
2022-08-30T05:59:26.988Z,22.99
2022-08-30T06:01:57.120Z,23.59
2022-08-30T06:04:24.033Z,24.00
2022-08-30T06:06:50.565Z,24.33
2022-08-30T06:09:17.616Z,24.67
2022-08-30T06:11:45.453Z,24.96
2022-08-30T06:14:12.788Z,25.27
2022-08-30T06:16:40.023Z,25.65
2022-08-30T06:19:08.565Z,25.95
2022-08-30T06:21:36.991Z,26.25
2022-08-30T06:24:06.000Z,26.33
2022-08-30T06:26:41.371Z,26.63
2022-08-30T06:29:10.067Z,26.64
2022-08-30T06:31:36.645Z,27.02
2022-08-30T06:34:03.764Z,26.98
2022-08-30T06:36:30.782Z,26.77
2022-08-30T06:38:58.714Z,26.74
2022-08-30T06:41:28.136Z,26.54
2022-08-30T06:43:54.932Z,26.57
2022-08-30T06:46:24.440Z,26.37
2022-08-30T06:48:56.307Z,26.43
2022-08-30T06:51:25.419Z,26.38
2022-08-30T06:53:53.525Z,26.59
2022-08-30T06:56:22.253Z,26.58
2022-08-30T06:58:50.019Z,26.70
2022-08-30T07:01:22.532Z,26.79
2022-08-30T07:03:49.610Z,26.94
2022-08-30T07:06:16.796Z,27.16
2022-08-30T07:08:46.474Z,27.22
2022-08-30T07:11:13.172Z,27.39
2022-08-30T07:13:39.785Z,27.46
2022-08-30T07:16:14.507Z,27.59
2022-08-30T07:18:56.313Z,27.69
2022-08-30T07:21:43.814Z,27.71
2022-08-30T07:24:12.453Z,27.65
2022-08-30T07:26:42.196Z,27.70
2022-08-30T07:29:09.596Z,27.69
2022-08-30T07:31:37.575Z,27.73
2022-08-30T07:34:05.946Z,27.78
2022-08-30T07:36:33.172Z,27.75
2022-08-30T07:38:59.865Z,27.75
2022-08-30T07:41:35.769Z,27.90
2022-08-30T07:44:02.615Z,27.77
2022-08-30T07:46:29.588Z,27.85
2022-08-30T07:48:56.261Z,28.06
2022-08-30T07:51:25.675Z,28.35
2022-08-30T07:53:52.848Z,28.44
2022-08-30T07:56:20.844Z,28.67
2022-08-30T07:58:47.974Z,28.93
2022-08-30T08:01:15.194Z,29.00
2022-08-30T08:03:43.348Z,28.96
2022-08-30T08:06:12.703Z,29.33
2022-08-30T08:08:40.408Z,29.49
2022-08-30T08:11:18.776Z,29.57
2022-08-30T08:13:53.123Z,29.84
2022-08-30T08:16:23.023Z,30.07
2022-08-30T08:18:49.725Z,29.96
2022-08-30T08:21:16.581Z,29.89
2022-08-30T08:23:43.206Z,30.19
2022-08-30T08:26:09.963Z,30.33
2022-08-30T08:28:36.633Z,30.50
2022-08-30T08:31:03.504Z,30.79
2022-08-30T08:33:30.530Z,31.02
2022-08-30T08:35:57.011Z,31.00
2022-08-30T08:38:23.513Z,31.10
2022-08-30T08:41:10.398Z,31.27
2022-08-30T08:43:37.641Z,31.41
2022-08-30T08:46:11.899Z,31.50
2022-08-30T08:49:02.445Z,31.72
2022-08-30T08:51:52.698Z,31.96
2022-08-30T08:54:33.908Z,32.14
2022-08-30T08:57:00.894Z,32.23
2022-08-30T08:59:27.754Z,32.17
2022-08-30T09:01:58.726Z,32.08
2022-08-30T09:04:32.454Z,32.11
2022-08-30T09:07:14.275Z,31.93
2022-08-30T09:09:41.570Z,31.93
2022-08-30T09:12:11.132Z,32.02
2022-08-30T09:14:46.602Z,32.11
2022-08-30T09:17:18.612Z,32.02
2022-08-30T09:20:04.554Z,32.08
2022-08-30T09:22:43.624Z,32.24
2022-08-30T09:25:13.306Z,32.51
2022-08-30T09:27:42.918Z,32.48
2022-08-30T09:30:18.703Z,32.39
2022-08-30T09:32:54.784Z,32.50
2022-08-30T09:35:37.042Z,32.61
2022-08-30T09:38:13.323Z,32.70
2022-08-30T09:40:52.410Z,32.91
2022-08-30T09:43:25.761Z,32.85
2022-08-30T09:46:01.588Z,32.89
2022-08-30T09:48:38.043Z,32.77
2022-08-30T09:51:10.422Z,32.72
2022-08-30T09:54:17.066Z,32.70
2022-08-30T09:57:01.088Z,32.74
2022-08-30T09:59:53.507Z,32.79
2022-08-30T10:02:46.290Z,32.94
2022-08-30T10:05:19.486Z,32.76
2022-08-30T10:08:08.788Z,32.86
2022-08-30T10:10:49.171Z,32.82
2022-08-30T10:13:33.773Z,32.62
2022-08-30T10:16:18.719Z,32.80
2022-08-30T10:19:14.172Z,32.71
2022-08-30T10:21:50.009Z,32.70
2022-08-30T10:24:22.601Z,32.40
2022-08-30T10:26:51.878Z,32.47
2022-08-30T10:29:25.438Z,32.38
2022-08-30T10:32:19.100Z,32.40
2022-08-30T10:34:57.551Z,32.50
2022-08-30T10:37:31.108Z,32.51
2022-08-30T10:40:29.140Z,32.57
2022-08-30T10:42:58.552Z,32.37
2022-08-30T10:45:28.547Z,32.42
2022-08-30T10:48:07.135Z,32.46
2022-08-30T10:50:44.044Z,32.29
2022-08-30T10:53:15.881Z,32.06
2022-08-30T10:56:00.689Z,32.20
2022-08-30T10:58:27.713Z,32.40
2022-08-30T11:01:28.535Z,32.50
2022-08-30T11:04:24.878Z,32.67
2022-08-30T11:06:57.337Z,32.83
2022-08-30T11:09:47.313Z,32.96
2022-08-30T11:12:35.026Z,32.88
2022-08-30T11:15:15.354Z,32.93
2022-08-30T11:17:54.991Z,33.06
2022-08-30T11:20:41.087Z,33.06
2022-08-30T11:23:36.247Z,32.93
2022-08-30T11:26:03.040Z,33.03
2022-08-30T11:28:35.810Z,32.98
2022-08-30T11:31:09.730Z,32.99
2022-08-30T11:33:55.458Z,33.11
2022-08-30T11:36:38.822Z,32.95
2022-08-30T11:39:48.201Z,32.62
2022-08-30T11:42:29.991Z,32.45
2022-08-30T11:45:26.512Z,32.10
2022-08-30T11:47:57.183Z,31.73
2022-08-30T11:50:48.271Z,31.78
2022-08-30T11:53:33.096Z,31.88
2022-08-30T11:56:13.109Z,32.09
2022-08-30T11:58:49.347Z,32.43
2022-08-30T12:01:50.118Z,32.71
2022-08-30T12:04:17.651Z,32.78
2022-08-30T12:06:48.490Z,32.97
2022-08-30T12:09:41.358Z,32.97
2022-08-30T12:12:12.377Z,33.02
2022-08-30T12:14:49.233Z,33.14
2022-08-30T12:17:48.340Z,33.17
2022-08-30T12:20:20.269Z,33.18
2022-08-30T12:22:48.996Z,33.36
2022-08-30T12:25:29.168Z,33.34
2022-08-30T12:28:10.611Z,33.22
2022-08-30T12:30:40.016Z,33.26
2022-08-30T12:33:12.012Z,33.03
2022-08-30T12:35:40.595Z,33.07
2022-08-30T12:38:22.347Z,32.67
2022-08-30T12:40:58.459Z,32.54
2022-08-30T12:43:39.636Z,32.58
2022-08-30T12:46:12.394Z,32.64
2022-08-30T12:48:40.928Z,32.66
2022-08-30T12:51:10.836Z,32.87
2022-08-30T12:53:43.008Z,32.90
2022-08-30T12:56:40.642Z,32.72
2022-08-30T12:59:05.937Z,32.48
2022-08-30T13:01:37.289Z,32.32
2022-08-30T13:04:20.736Z,32.16
2022-08-30T13:06:57.776Z,32.12
2022-08-30T13:09:44.079Z,32.11
2022-08-30T13:12:30.993Z,32.18
2022-08-30T13:15:19.177Z,32.11
2022-08-30T13:17:47.223Z,32.18
2022-08-30T13:20:16.516Z,32.33
2022-08-30T13:23:05.116Z,32.22
2022-08-30T13:25:32.884Z,32.19
2022-08-30T13:28:01.232Z,32.04
2022-08-30T13:30:28.410Z,32.01
2022-08-30T13:32:55.200Z,32.03
2022-08-30T13:35:25.010Z,32.16
2022-08-30T13:37:52.099Z,32.25
2022-08-30T13:40:21.473Z,32.23
2022-08-30T13:42:48.615Z,32.08
2022-08-30T13:48:04.998Z,31.62
2022-08-30T13:50:33.058Z,31.41
2022-08-30T13:52:59.549Z,31.10
2022-08-30T13:55:26.692Z,31.04
2022-08-30T13:57:55.572Z,31.07
2022-08-30T14:00:24.707Z,31.09
2022-08-30T14:02:57.711Z,31.06
2022-08-30T14:08:49.213Z,31.11
2022-08-30T14:11:19.736Z,31.15
2022-08-30T14:16:36.990Z,30.80
2022-08-30T14:19:04.678Z,30.68
2022-08-30T14:21:32.461Z,30.59
2022-08-30T14:23:59.728Z,30.60
2022-08-30T14:26:33.442Z,30.62
2022-08-30T14:29:03.334Z,30.60
2022-08-30T14:31:32.750Z,30.41
2022-08-30T14:34:04.252Z,30.39
2022-08-30T14:36:33.063Z,30.40
2022-08-30T14:39:00.193Z,30.41
2022-08-30T14:41:27.063Z,30.38
2022-08-30T14:43:53.631Z,30.36
2022-08-30T14:46:22.031Z,30.46
2022-08-30T14:48:49.046Z,30.49
2022-08-30T14:51:20.133Z,30.54
2022-08-30T14:53:47.318Z,30.53
2022-08-30T14:56:16.773Z,30.43
2022-08-30T14:58:48.428Z,30.29
2022-08-30T15:01:15.053Z,30.15
2022-08-30T15:03:42.299Z,30.19
2022-08-30T15:06:09.527Z,30.19
2022-08-30T15:08:38.536Z,30.17
2022-08-30T15:11:11.138Z,30.09
2022-08-30T15:13:38.957Z,29.91
2022-08-30T15:16:18.927Z,29.83
2022-08-30T15:18:46.220Z,29.71
2022-08-30T15:21:12.822Z,29.64
2022-08-30T15:23:40.398Z,29.57
2022-08-30T15:26:09.847Z,29.52
2022-08-30T15:28:36.920Z,29.40
2022-08-30T15:31:08.285Z,29.31
2022-08-30T15:33:36.814Z,29.18
2022-08-30T15:36:06.740Z,29.15
2022-08-30T15:38:34.691Z,29.12
2022-08-30T15:41:07.012Z,29.09
2022-08-30T15:43:34.256Z,29.03
2022-08-30T15:46:18.138Z,28.93
2022-08-30T15:48:46.106Z,28.90
2022-08-30T15:51:13.593Z,28.84
2022-08-30T15:53:40.554Z,28.81
2022-08-30T15:56:07.143Z,28.72
2022-08-30T15:58:35.070Z,28.63
2022-08-30T16:01:02.205Z,28.55
2022-08-30T16:03:29.396Z,28.48
2022-08-30T16:05:55.926Z,28.43
2022-08-30T16:08:22.552Z,28.41
2022-08-30T16:10:52.104Z,28.37
2022-08-30T16:13:18.925Z,28.34
2022-08-30T16:15:45.787Z,28.32
2022-08-30T16:18:13.909Z,28.31
2022-08-30T16:20:42.068Z,28.28
2022-08-30T16:23:10.716Z,28.16
2022-08-30T16:25:40.917Z,28.08
2022-08-30T16:28:09.560Z,27.95
2022-08-30T16:30:36.719Z,27.85
2022-08-30T16:33:03.384Z,27.77
2022-08-30T16:35:29.959Z,27.71
2022-08-30T16:37:56.476Z,27.64
2022-08-30T16:40:23.234Z,27.60
2022-08-30T16:42:50.646Z,27.53
2022-08-30T16:45:19.885Z,27.45
2022-08-30T16:47:46.420Z,27.39
2022-08-30T16:50:15.514Z,27.32
2022-08-30T16:52:44.481Z,27.15
2022-08-30T16:55:11.089Z,27.17
2022-08-30T16:57:38.623Z,27.12
2022-08-30T17:00:13.011Z,27.04
2022-08-30T17:02:40.239Z,26.94
2022-08-30T17:05:12.307Z,26.83
2022-08-30T17:07:39.773Z,26.76
2022-08-30T17:10:06.900Z,26.64
2022-08-30T17:12:35.564Z,26.57
2022-08-30T17:15:05.580Z,26.48
2022-08-30T17:17:32.579Z,26.37
2022-08-30T17:19:59.153Z,26.30
2022-08-30T17:22:26.078Z,26.25
2022-08-30T17:24:53.071Z,26.21
2022-08-30T17:27:20.001Z,26.11
2022-08-30T17:29:47.816Z,26.04
2022-08-30T17:32:14.661Z,25.90
2022-08-30T17:34:41.345Z,25.94
2022-08-30T17:37:08.155Z,25.89
2022-08-30T17:39:34.719Z,25.76
2022-08-30T17:42:02.993Z,25.74
2022-08-30T17:44:32.321Z,25.73
2022-08-30T17:46:59.955Z,25.68
2022-08-30T17:49:27.350Z,25.66
2022-08-30T17:51:56.988Z,25.58
2022-08-30T17:54:24.338Z,25.54
2022-08-30T17:56:52.221Z,25.52
2022-08-30T17:59:19.169Z,25.48
2022-08-30T18:01:51.786Z,25.41
2022-08-30T18:04:19.744Z,25.42
2022-08-30T18:06:47.629Z,25.37
2022-08-30T18:09:14.268Z,25.28
2022-08-30T18:11:40.856Z,25.26
2022-08-30T18:14:10.850Z,25.22
2022-08-30T18:16:38.998Z,25.12
2022-08-30T18:19:19.586Z,25.13
2022-08-30T18:21:46.147Z,25.10
2022-08-30T18:24:12.854Z,25.09
2022-08-30T18:26:43.084Z,25.09
2022-08-30T18:29:10.601Z,25.01
2022-08-30T18:31:37.104Z,24.99
2022-08-30T18:34:03.920Z,24.92
2022-08-30T18:36:30.701Z,24.85
2022-08-30T18:38:58.168Z,24.75
2022-08-30T18:41:25.545Z,24.51
2022-08-30T18:44:10.960Z,24.69
2022-08-30T18:46:56.852Z,24.62
2022-08-30T18:49:27.589Z,24.55
2022-08-30T18:51:54.591Z,24.49
2022-08-30T18:54:21.168Z,24.41
2022-08-30T18:56:47.968Z,24.32
2022-08-30T18:59:15.561Z,24.30
2022-08-30T19:01:42.604Z,24.26
2022-08-30T19:04:10.780Z,24.20
2022-08-30T19:06:47.192Z,24.16
2022-08-30T19:09:13.763Z,24.06
2022-08-30T19:11:40.358Z,24.09
2022-08-30T19:14:07.759Z,24.07
2022-08-30T19:16:34.690Z,24.06
2022-08-30T19:19:03.427Z,24.07
2022-08-30T19:21:30.287Z,24.04
2022-08-30T19:23:58.291Z,24.03
2022-08-30T19:26:27.600Z,24.01
2022-08-30T19:28:54.261Z,23.99
2022-08-30T19:31:20.744Z,23.96
2022-08-30T19:33:47.475Z,23.93
2022-08-30T19:36:14.226Z,23.96
2022-08-30T19:38:44.282Z,23.94
2022-08-30T19:41:13.615Z,23.96
2022-08-30T19:43:41.054Z,23.94
2022-08-30T19:46:08.752Z,23.93
2022-08-30T19:48:42.916Z,23.92
2022-08-30T19:51:15.168Z,23.89
2022-08-30T19:53:42.668Z,23.85
2022-08-30T19:56:09.286Z,23.84
2022-08-30T19:58:36.201Z,23.84
2022-08-30T20:01:13.093Z,23.75
2022-08-30T20:03:51.941Z,23.76
2022-08-30T20:06:19.228Z,23.76
2022-08-30T20:08:47.228Z,23.76
2022-08-30T20:11:17.061Z,23.74
2022-08-30T20:13:44.878Z,23.71
2022-08-30T20:16:13.973Z,23.70
2022-08-30T20:18:42.735Z,23.69
2022-08-30T20:21:13.468Z,23.69
2022-08-30T20:23:41.992Z,23.65
2022-08-30T20:26:10.042Z,23.65
2022-08-30T20:28:37.258Z,23.60
2022-08-30T20:31:06.035Z,23.57
2022-08-30T20:33:36.435Z,23.51
2022-08-30T20:36:04.285Z,23.45
2022-08-30T20:38:31.929Z,23.38
2022-08-30T20:41:01.017Z,23.32
2022-08-30T20:43:29.266Z,23.29
2022-08-30T20:45:56.540Z,23.24
2022-08-30T20:48:25.592Z,23.22
2022-08-30T20:50:52.128Z,23.18
2022-08-30T20:53:18.639Z,23.11
2022-08-30T20:55:47.008Z,23.11
2022-08-30T20:58:14.399Z,22.96
2022-08-30T21:00:41.110Z,23.01
2022-08-30T21:03:27.689Z,22.92
2022-08-30T21:05:55.778Z,22.92
2022-08-30T21:08:22.585Z,22.89
2022-08-30T21:10:49.218Z,22.85
2022-08-30T21:13:15.753Z,22.79
2022-08-30T21:15:45.945Z,22.84
2022-08-30T21:18:14.402Z,22.76
2022-08-30T21:20:41.320Z,22.85
2022-08-30T21:23:08.043Z,22.83
2022-08-30T21:25:38.657Z,22.81
2022-08-30T21:28:05.517Z,22.66
2022-08-30T21:30:32.029Z,22.77
2022-08-30T21:33:00.352Z,22.70
2022-08-30T21:35:46.324Z,22.78
2022-08-30T21:38:13.081Z,22.79
2022-08-30T21:40:39.726Z,22.47
2022-08-30T21:43:07.501Z,22.78
2022-08-30T21:45:41.901Z,22.77
2022-08-30T21:48:09.077Z,22.78
2022-08-30T21:50:38.386Z,22.78
2022-08-30T21:53:05.977Z,22.78
2022-08-30T21:55:32.820Z,22.68
2022-08-30T21:57:59.555Z,22.74
2022-08-30T22:00:26.129Z,22.70
2022-08-30T22:02:53.373Z,22.68
2022-08-30T22:05:20.518Z,22.69
2022-08-30T22:07:47.080Z,22.63
2022-08-30T22:10:15.115Z,22.61
2022-08-30T22:12:41.718Z,22.58
2022-08-30T22:15:08.856Z,22.46
2022-08-30T22:17:35.343Z,22.47
2022-08-30T22:20:01.987Z,22.42
2022-08-30T22:22:28.452Z,22.41
2022-08-30T22:24:54.976Z,22.37
2022-08-30T22:27:21.564Z,22.32
2022-08-30T22:29:48.177Z,22.27
2022-08-30T22:32:14.698Z,22.21
2022-08-30T22:34:41.270Z,22.20
2022-08-30T22:37:07.877Z,22.17
2022-08-30T22:39:34.436Z,22.10
2022-08-30T22:42:01.046Z,22.09
2022-08-30T22:44:27.612Z,22.08
2022-08-30T22:46:54.144Z,22.07
2022-08-30T22:49:20.631Z,22.06
2022-08-30T22:51:47.112Z,22.04
2022-08-30T22:54:13.760Z,22.02
2022-08-30T22:56:40.331Z,21.95
2022-08-30T22:59:07.144Z,21.89
2022-08-30T23:01:37.153Z,21.87
2022-08-30T23:04:06.340Z,21.81
2022-08-30T23:06:33.379Z,21.80
2022-08-30T23:09:00.028Z,21.77
2022-08-30T23:11:26.785Z,21.71
2022-08-30T23:13:54.076Z,21.65
2022-08-30T23:16:23.842Z,21.61
2022-08-30T23:18:50.441Z,21.63
2022-08-30T23:21:20.849Z,21.63
2022-08-30T23:24:06.837Z,21.60
2022-08-30T23:26:53.030Z,21.60
2022-08-30T23:29:38.240Z,21.45
2022-08-30T23:32:23.357Z,21.43
2022-08-30T23:35:08.625Z,21.35
2022-08-30T23:37:53.762Z,21.37
2022-08-30T23:40:40.572Z,21.32
2022-08-30T23:43:26.862Z,21.30
2022-08-30T23:46:18.786Z,21.31
2022-08-30T23:49:05.487Z,21.27
2022-08-30T23:51:50.681Z,21.27
2022-08-30T23:54:35.744Z,21.27
2022-08-30T23:57:20.844Z,21.26
